createdAt,value
2018-12-08T00:00:08.970Z,99.90
2018-12-08T00:02:39.803Z,99.90
2018-12-08T00:05:13.433Z,99.90
2018-12-08T00:07:42.241Z,99.90
2018-12-08T00:10:12.065Z,99.90
2018-12-08T00:12:40.929Z,99.90
2018-12-08T00:15:13.981Z,99.90
2018-12-08T00:17:42.813Z,99.90
2018-12-08T00:20:16.381Z,99.90
2018-12-08T00:22:47.185Z,99.90
2018-12-08T00:25:19.917Z,99.90
2018-12-08T00:27:54.457Z,99.90
2018-12-08T00:30:41.013Z,99.90
2018-12-08T00:33:14.777Z,99.90
2018-12-08T00:35:56.049Z,99.90
2018-12-08T00:38:26.205Z,99.90
2018-12-08T00:40:56.025Z,99.90
2018-12-08T00:43:26.937Z,99.90
2018-12-08T00:46:03.745Z,99.90
2018-12-08T00:48:33.532Z,99.90
2018-12-08T00:51:12.825Z,99.90
2018-12-08T00:53:51.645Z,99.90
2018-12-08T00:56:24.361Z,99.90
2018-12-08T00:58:53.181Z,99.90
2018-12-08T01:01:22.985Z,99.90
2018-12-08T01:03:55.700Z,99.90
2018-12-08T01:06:28.361Z,99.90
2018-12-08T01:08:57.209Z,99.90
2018-12-08T01:11:44.845Z,99.90
2018-12-08T01:14:15.691Z,99.90
2018-12-08T01:16:50.808Z,99.90
2018-12-08T01:19:19.645Z,99.90
2018-12-08T01:21:49.393Z,99.90
2018-12-08T01:24:30.809Z,99.90
2018-12-08T01:27:12.201Z,99.90
2018-12-08T01:29:42.901Z,99.90
2018-12-08T01:32:13.757Z,99.90
2018-12-08T01:34:42.733Z,99.90
2018-12-08T01:37:15.632Z,99.90
2018-12-08T01:39:46.356Z,99.90
2018-12-08T01:42:16.078Z,99.90
2018-12-08T01:44:46.921Z,99.90
2018-12-08T01:47:19.308Z,99.90
2018-12-08T01:49:48.132Z,99.90
2018-12-08T01:52:17.860Z,99.90
2018-12-08T01:54:50.456Z,99.90
2018-12-08T01:57:20.300Z,99.90
2018-12-08T01:59:49.085Z,99.90
2018-12-08T02:02:28.032Z,99.90
2018-12-08T02:05:01.980Z,99.90
2018-12-08T02:07:36.749Z,99.90
2018-12-08T02:10:28.433Z,99.90
2018-12-08T02:12:57.924Z,99.90
2018-12-08T02:15:27.752Z,99.90
2018-12-08T02:17:58.472Z,99.90
2018-12-08T02:20:31.969Z,99.90
2018-12-08T02:23:13.179Z,99.90
2018-12-08T02:25:42.987Z,99.90
2018-12-08T02:28:11.859Z,99.90
2018-12-08T02:30:42.610Z,99.90
2018-12-08T02:33:15.592Z,99.90
2018-12-08T02:35:44.442Z,99.90
2018-12-08T02:38:21.624Z,99.90
2018-12-08T02:40:50.752Z,99.90
2018-12-08T02:43:26.906Z,99.90
2018-12-08T02:46:00.736Z,99.90
2018-12-08T02:48:29.645Z,99.90
2018-12-08T02:50:58.487Z,99.90
2018-12-08T02:53:27.295Z,99.90
2018-12-08T02:55:57.074Z,99.90
2018-12-08T02:58:26.910Z,99.90
2018-12-08T03:00:59.782Z,99.90
2018-12-08T03:03:36.371Z,99.90
2018-12-08T03:06:06.166Z,99.90
2018-12-08T03:08:41.782Z,99.90
2018-12-08T03:11:14.802Z,99.90
2018-12-08T03:13:43.590Z,99.90
2018-12-08T03:16:19.265Z,99.90
2018-12-08T03:18:49.981Z,99.90
2018-12-08T03:21:21.131Z,99.90
2018-12-08T03:23:56.233Z,99.90
2018-12-08T03:26:28.935Z,99.90
2018-12-08T03:29:07.525Z,99.90
2018-12-08T03:31:47.166Z,99.90
2018-12-08T03:34:17.921Z,99.90
2018-12-08T03:36:47.641Z,99.90
2018-12-08T03:39:17.373Z,99.90
2018-12-08T03:41:50.219Z,99.90
2018-12-08T03:44:24.894Z,99.90
2018-12-08T03:47:02.255Z,99.90
2018-12-08T03:49:41.447Z,99.90
2018-12-08T03:52:14.057Z,99.90
2018-12-08T03:54:43.896Z,99.90
2018-12-08T03:57:12.793Z,99.90
2018-12-08T03:59:41.629Z,99.90
2018-12-08T04:02:10.535Z,99.90
2018-12-08T04:04:43.166Z,99.90
2018-12-08T04:07:13.373Z,99.90
2018-12-08T04:09:43.713Z,99.90
2018-12-08T04:12:12.690Z,99.90
2018-12-08T04:14:41.465Z,99.90
2018-12-08T04:17:10.280Z,99.90
2018-12-08T04:19:41.530Z,99.90
2018-12-08T04:22:12.475Z,99.90
2018-12-08T04:24:42.329Z,99.90
2018-12-08T04:27:12.159Z,99.90
2018-12-08T04:29:41.933Z,99.90
2018-12-08T04:32:10.705Z,99.90
2018-12-08T04:34:40.572Z,99.90
2018-12-08T04:37:10.207Z,99.90
2018-12-08T04:39:40.037Z,99.90
2018-12-08T04:42:11.941Z,99.90
2018-12-08T04:44:46.628Z,99.90
2018-12-08T04:47:17.374Z,99.90
2018-12-08T04:49:46.181Z,99.90
2018-12-08T04:52:20.064Z,99.90
2018-12-08T04:54:49.806Z,99.90
2018-12-08T04:57:23.560Z,99.90
2018-12-08T05:00:03.073Z,99.90
2018-12-08T05:02:36.989Z,99.90
2018-12-08T05:05:07.724Z,99.90
2018-12-08T05:07:36.505Z,99.90
2018-12-08T05:10:06.513Z,99.90
2018-12-08T05:12:40.700Z,99.90
2018-12-08T05:15:09.587Z,99.90
2018-12-08T05:17:40.401Z,99.90
2018-12-08T05:20:14.514Z,99.90
2018-12-08T05:22:47.325Z,99.90
2018-12-08T05:25:17.137Z,99.90
2018-12-08T05:27:49.898Z,99.90
2018-12-08T05:30:29.326Z,99.90
2018-12-08T05:32:59.157Z,99.90
2018-12-08T05:35:27.953Z,99.90
2018-12-08T05:38:00.594Z,99.90
2018-12-08T05:40:34.438Z,99.90
2018-12-08T05:43:04.385Z,99.90
2018-12-08T05:45:40.337Z,99.90
2018-12-08T05:48:14.382Z,99.90
2018-12-08T05:50:50.922Z,99.90
2018-12-08T05:53:25.726Z,99.90
2018-12-08T05:55:57.897Z,99.90
2018-12-08T05:58:26.750Z,99.90
2018-12-08T06:00:56.702Z,99.90
2018-12-08T06:03:26.503Z,99.90
2018-12-08T06:06:15.450Z,99.90
2018-12-08T06:08:47.590Z,99.90
2018-12-08T06:11:18.335Z,99.90
2018-12-08T06:13:47.109Z,99.90
2018-12-08T06:16:20.818Z,99.90
2018-12-08T06:18:50.526Z,99.90
2018-12-08T06:21:28.894Z,99.90
2018-12-08T06:24:04.611Z,99.90
2018-12-08T06:26:37.957Z,99.90
2018-12-08T06:29:07.986Z,99.90
2018-12-08T06:31:38.745Z,99.90
2018-12-08T06:34:09.441Z,99.90
2018-12-08T06:36:39.225Z,99.90
2018-12-08T06:39:10.417Z,99.90
2018-12-08T06:41:43.520Z,99.90
2018-12-08T06:44:17.102Z,99.90
2018-12-08T06:47:00.307Z,99.90
2018-12-08T06:49:31.114Z,99.90
2018-12-08T06:52:04.134Z,99.90
2018-12-08T06:54:43.565Z,99.90
2018-12-08T06:57:14.359Z,99.90
2018-12-08T06:59:44.118Z,99.90
2018-12-08T07:02:19.578Z,99.90
2018-12-08T07:04:49.302Z,99.90
2018-12-08T07:07:18.186Z,99.90
2018-12-08T07:09:53.786Z,99.90
2018-12-08T07:12:24.566Z,99.90
2018-12-08T07:14:53.363Z,99.90
2018-12-08T07:17:22.138Z,99.90
2018-12-08T07:19:57.454Z,99.90
2018-12-08T07:22:46.518Z,99.90
2018-12-08T07:25:20.166Z,99.90
2018-12-08T07:27:54.754Z,99.90
2018-12-08T07:30:26.606Z,99.90
2018-12-08T07:32:58.362Z,99.90
2018-12-08T07:35:31.891Z,99.90
2018-12-08T07:38:01.571Z,99.90
2018-12-08T07:40:30.378Z,99.90
2018-12-08T07:42:59.166Z,99.90
2018-12-08T07:45:32.943Z,99.90
2018-12-08T07:48:06.594Z,99.90
2018-12-08T07:50:35.438Z,99.90
2018-12-08T07:53:05.162Z,99.90
2018-12-08T07:55:38.678Z,99.90
2018-12-08T07:58:09.442Z,99.90
2018-12-08T08:00:38.271Z,99.90
2018-12-08T08:03:09.026Z,99.90
2018-12-08T08:05:48.242Z,99.90
2018-12-08T08:08:17.051Z,99.90
2018-12-08T08:10:45.998Z,99.90
2018-12-08T08:13:17.857Z,99.90
2018-12-08T08:15:48.658Z,99.90
2018-12-08T08:18:18.398Z,99.90
2018-12-08T08:20:55.590Z,99.90
2018-12-08T08:23:26.333Z,99.90
2018-12-08T08:25:56.050Z,99.90
2018-12-08T08:28:25.761Z,99.90
2018-12-08T08:31:04.506Z,99.90
2018-12-08T08:33:34.218Z,99.90
2018-12-08T08:36:03.069Z,99.90
2018-12-08T08:38:31.838Z,99.90
2018-12-08T08:41:00.702Z,99.90
2018-12-08T08:43:34.283Z,99.90
2018-12-08T08:46:13.665Z,97.70
2018-12-08T08:48:46.594Z,93.20
2018-12-08T08:51:15.374Z,95.10
2018-12-08T08:53:44.147Z,99.20
2018-12-08T08:56:14.918Z,99.90
2018-12-08T08:58:52.058Z,99.90
2018-12-08T09:01:22.818Z,99.90
2018-12-08T09:03:56.218Z,99.90
2018-12-08T09:06:27.938Z,99.90
2018-12-08T09:08:58.416Z,99.90
2018-12-08T09:11:27.302Z,99.90
2018-12-08T09:13:58.031Z,99.90
2018-12-08T09:16:26.929Z,99.90
2018-12-08T09:18:55.779Z,99.90
2018-12-08T09:21:25.645Z,98.60
2018-12-08T09:23:55.362Z,97.20
2018-12-08T09:26:26.182Z,96.60
2018-12-08T09:29:05.282Z,96.30
2018-12-08T09:31:37.329Z,94.80
2018-12-08T09:34:08.134Z,93.90
2018-12-08T09:36:41.426Z,91.80
2018-12-08T09:39:12.230Z,92.40
2018-12-08T09:41:41.951Z,92.60
2018-12-08T09:44:10.762Z,92.70
2018-12-08T09:46:46.050Z,92.50
2018-12-08T09:49:16.910Z,91.40
2018-12-08T09:51:45.682Z,92.10
2018-12-08T09:54:15.442Z,92.40
2018-12-08T09:56:46.202Z,92.40
2018-12-08T09:59:19.104Z,89.50
2018-12-08T10:01:51.494Z,88.80
2018-12-08T10:04:25.183Z,89.00
2018-12-08T10:06:53.995Z,89.50
2018-12-08T10:09:24.703Z,90.10
2018-12-08T10:11:53.487Z,90.30
2018-12-08T10:14:25.880Z,91.30
2018-12-08T10:16:54.743Z,90.50
2018-12-08T10:19:25.599Z,92.00
2018-12-08T10:21:55.431Z,91.20
2018-12-08T10:24:25.215Z,92.60
2018-12-08T10:26:54.047Z,93.50
2018-12-08T10:29:24.768Z,93.80
2018-12-08T10:31:53.627Z,96.10
2018-12-08T10:34:25.311Z,98.10
2018-12-08T10:36:54.223Z,99.10
2018-12-08T10:39:25.331Z,99.90
2018-12-08T10:42:04.071Z,99.90
2018-12-08T10:44:33.767Z,99.90
2018-12-08T10:47:05.883Z,99.90
2018-12-08T10:49:39.491Z,99.90
2018-12-08T10:52:10.239Z,99.90
2018-12-08T10:54:46.607Z,99.90
2018-12-08T10:57:19.568Z,99.90
2018-12-08T10:59:54.875Z,99.90
2018-12-08T11:02:32.220Z,99.90
2018-12-08T11:05:01.055Z,99.90
2018-12-08T11:07:30.727Z,99.90
2018-12-08T11:09:59.547Z,99.90
2018-12-08T11:12:28.405Z,99.90
2018-12-08T11:15:00.749Z,99.90
2018-12-08T11:17:28.958Z,99.90
2018-12-08T11:20:01.956Z,99.90
2018-12-08T11:22:30.783Z,99.90
2018-12-08T11:24:59.562Z,99.90
2018-12-08T11:27:29.323Z,99.90
2018-12-08T11:29:58.148Z,99.90
2018-12-08T11:32:28.951Z,99.90
2018-12-08T11:35:03.375Z,99.90
2018-12-08T11:37:33.172Z,99.90
2018-12-08T11:40:07.675Z,99.90
2018-12-08T11:42:41.995Z,99.90
2018-12-08T11:45:10.958Z,99.90
2018-12-08T11:47:39.747Z,99.90
2018-12-08T11:50:16.259Z,99.90
2018-12-08T11:52:45.931Z,99.90
2018-12-08T11:55:15.667Z,99.90
2018-12-08T11:57:44.491Z,99.90
2018-12-08T12:00:20.983Z,99.90
2018-12-08T12:02:50.783Z,99.90
2018-12-08T12:05:20.582Z,99.90
2018-12-08T12:08:00.898Z,99.90
2018-12-08T12:10:30.598Z,99.90
2018-12-08T12:13:01.330Z,99.90
2018-12-08T12:15:34.503Z,99.90
2018-12-08T12:18:03.278Z,99.90
2018-12-08T12:20:35.176Z,99.90
2018-12-08T12:23:04.047Z,99.90
2018-12-08T12:25:33.006Z,99.90
2018-12-08T12:28:02.970Z,99.90
2018-12-08T12:30:31.774Z,99.90
2018-12-08T12:33:02.478Z,99.90
2018-12-08T12:35:42.132Z,99.90
2018-12-08T12:38:14.338Z,99.90
2018-12-08T12:40:43.094Z,99.90
2018-12-08T12:43:12.802Z,99.90
2018-12-08T12:45:54.134Z,99.90
2018-12-08T12:48:23.878Z,99.90
2018-12-08T12:51:16.942Z,99.90
2018-12-08T12:53:50.526Z,99.90
2018-12-08T12:56:25.066Z,99.90
2018-12-08T12:58:54.202Z,99.90
2018-12-08T13:01:24.886Z,99.90
2018-12-08T13:03:53.862Z,99.90
2018-12-08T13:06:30.271Z,99.90
2018-12-08T13:09:09.798Z,99.90
2018-12-08T13:11:38.674Z,99.90
2018-12-08T13:14:07.506Z,99.90
2018-12-08T13:16:38.243Z,99.90
2018-12-08T13:19:07.070Z,99.90
2018-12-08T13:21:42.506Z,99.90
2018-12-08T13:24:14.882Z,99.90
2018-12-08T13:26:44.733Z,99.90
2018-12-08T13:29:13.586Z,99.90
2018-12-08T13:31:57.299Z,99.90
2018-12-08T13:34:26.970Z,99.90
2018-12-08T13:37:01.010Z,99.90
2018-12-08T13:39:30.750Z,99.90
2018-12-08T13:41:59.518Z,99.90
2018-12-08T13:44:37.079Z,99.90
2018-12-08T13:47:06.911Z,99.90
2018-12-08T13:49:41.652Z,99.90
2018-12-08T13:52:11.627Z,99.90
2018-12-08T13:54:46.963Z,99.90
2018-12-08T13:57:16.860Z,99.90
2018-12-08T13:59:50.986Z,99.90
2018-12-08T14:02:23.063Z,99.90
2018-12-08T14:04:55.707Z,99.90
2018-12-08T14:07:24.535Z,99.90
2018-12-08T14:09:54.246Z,99.90
2018-12-08T14:12:23.114Z,99.90
2018-12-08T14:14:53.859Z,99.90
2018-12-08T14:17:23.714Z,99.90
2018-12-08T14:19:55.851Z,99.90
2018-12-08T14:22:25.655Z,99.90
2018-12-08T14:25:00.279Z,99.90
2018-12-08T14:27:33.083Z,99.90
2018-12-08T14:30:02.008Z,99.90
2018-12-08T14:32:30.815Z,99.90
2018-12-08T14:35:03.219Z,99.90
2018-12-08T14:37:35.876Z,99.90
2018-12-08T14:40:09.339Z,99.90
2018-12-08T14:42:38.159Z,99.90
2018-12-08T14:45:11.647Z,99.90
2018-12-08T14:47:40.593Z,99.90
2018-12-08T14:50:09.615Z,99.90
2018-12-08T14:52:44.791Z,99.90
2018-12-08T14:55:13.695Z,99.90
2018-12-08T14:57:43.443Z,99.90
2018-12-08T15:00:18.027Z,99.90
2018-12-08T15:02:46.935Z,99.90
2018-12-08T15:05:16.047Z,99.90
2018-12-08T15:07:44.879Z,99.90
2018-12-08T15:10:14.636Z,99.90
2018-12-08T15:12:43.471Z,99.90
2018-12-08T15:15:12.332Z,99.90
2018-12-08T15:17:41.180Z,99.90
2018-12-08T15:20:13.224Z,99.90
2018-12-08T15:22:42.016Z,99.90
2018-12-08T15:25:11.692Z,99.90
2018-12-08T15:27:44.343Z,99.90
2018-12-08T15:30:15.176Z,99.90
2018-12-08T15:32:45.020Z,99.90
2018-12-08T15:35:19.648Z,99.90
2018-12-08T15:37:49.388Z,99.90
2018-12-08T15:40:18.247Z,99.90
2018-12-08T15:42:47.120Z,99.90
2018-12-08T15:45:16.795Z,99.90
2018-12-08T15:47:45.740Z,99.90
2018-12-08T15:50:16.707Z,99.90
2018-12-08T15:52:46.708Z,99.90
2018-12-08T15:55:17.043Z,99.90
2018-12-08T15:57:49.900Z,99.90
2018-12-08T16:00:23.604Z,99.90
2018-12-08T16:02:54.380Z,99.90
2018-12-08T16:05:24.254Z,99.90
2018-12-08T16:07:53.204Z,99.90
2018-12-08T16:10:28.304Z,99.90
2018-12-08T16:12:59.040Z,99.90
2018-12-08T16:15:34.487Z,99.90
2018-12-08T16:18:07.491Z,99.90
2018-12-08T16:20:38.293Z,99.90
2018-12-08T16:23:20.349Z,99.90
2018-12-08T16:25:50.096Z,99.90
2018-12-08T16:28:23.348Z,99.90
2018-12-08T16:30:54.128Z,99.90
2018-12-08T16:33:23.928Z,99.90
2018-12-08T16:36:05.801Z,99.90
2018-12-08T16:38:36.553Z,99.90
2018-12-08T16:41:07.672Z,99.90
2018-12-08T16:43:36.536Z,99.90
2018-12-08T16:46:17.666Z,99.90
2018-12-08T16:48:47.444Z,99.90
2018-12-08T16:51:17.216Z,99.90
2018-12-08T16:53:49.820Z,99.90
2018-12-08T16:56:24.492Z,99.90
2018-12-08T16:59:15.464Z,99.90
2018-12-08T17:01:52.876Z,99.90
2018-12-08T17:04:26.884Z,99.90
2018-12-08T17:06:57.704Z,99.90
2018-12-08T17:09:26.560Z,99.90
2018-12-08T17:11:56.441Z,99.90
2018-12-08T17:14:29.967Z,99.90
2018-12-08T17:17:09.800Z,99.90
2018-12-08T17:19:38.636Z,99.90
2018-12-08T17:22:07.516Z,99.90
2018-12-08T17:24:36.340Z,99.90
2018-12-08T17:27:11.056Z,99.90
2018-12-08T17:29:44.736Z,99.90
2018-12-08T17:32:14.487Z,99.90
2018-12-08T17:34:43.320Z,99.90
2018-12-08T17:37:13.149Z,99.90
2018-12-08T17:39:42.008Z,99.90
2018-12-08T17:42:14.060Z,99.90
2018-12-08T17:44:42.842Z,99.90
2018-12-08T17:47:15.590Z,99.90
2018-12-08T17:49:44.444Z,99.90
2018-12-08T17:52:16.680Z,99.90
2018-12-08T17:54:50.123Z,99.90
2018-12-08T17:57:18.990Z,99.90
2018-12-08T17:59:48.792Z,99.90
2018-12-08T18:02:17.625Z,99.90
2018-12-08T18:04:48.421Z,99.90
2018-12-08T18:07:19.344Z,99.90
2018-12-08T18:09:49.237Z,99.90
2018-12-08T18:12:21.753Z,99.90
2018-12-08T18:14:51.440Z,99.90
2018-12-08T18:17:20.320Z,99.90
2018-12-08T18:20:01.721Z,99.90
2018-12-08T18:22:33.882Z,99.90
2018-12-08T18:25:08.536Z,99.90
2018-12-08T18:27:38.305Z,99.90
2018-12-08T18:30:14.473Z,99.90
2018-12-08T18:32:44.328Z,99.90
2018-12-08T18:35:16.772Z,99.90
2018-12-08T18:37:46.556Z,99.90
2018-12-08T18:40:19.148Z,99.90
2018-12-08T18:42:48.925Z,99.90
2018-12-08T18:45:18.124Z,99.90
2018-12-08T18:47:46.957Z,99.90
2018-12-08T18:50:15.853Z,99.90
2018-12-08T18:52:44.633Z,99.90
2018-12-08T18:55:13.626Z,99.90
2018-12-08T18:57:42.501Z,99.90
2018-12-08T19:00:11.857Z,99.90
2018-12-08T19:02:46.593Z,99.90
2018-12-08T19:05:17.284Z,99.90
2018-12-08T19:07:48.018Z,99.90
2018-12-08T19:10:20.829Z,99.90
2018-12-08T19:12:49.664Z,99.90
2018-12-08T19:15:19.234Z,99.90
2018-12-08T19:18:00.178Z,99.90
2018-12-08T19:20:29.291Z,99.90
2018-12-08T19:22:58.062Z,99.90
2018-12-08T19:25:27.848Z,99.90
2018-12-08T19:27:58.113Z,99.90
2018-12-08T19:30:31.229Z,99.90
2018-12-08T19:33:00.081Z,99.90
2018-12-08T19:35:30.301Z,99.90
2018-12-08T19:37:59.089Z,99.90
2018-12-08T19:40:33.069Z,99.90
2018-12-08T19:43:05.568Z,99.90
2018-12-08T19:45:34.392Z,99.90
2018-12-08T19:48:04.221Z,99.90
2018-12-08T19:50:35.088Z,99.90
2018-12-08T19:53:05.912Z,99.90
2018-12-08T19:55:42.108Z,99.90
2018-12-08T19:58:11.857Z,99.90
2018-12-08T20:00:41.621Z,99.90
2018-12-08T20:03:10.433Z,99.90
2018-12-08T20:05:40.241Z,99.90
2018-12-08T20:08:16.489Z,99.90
2018-12-08T20:10:46.189Z,99.90
2018-12-08T20:13:15.885Z,99.90
2018-12-08T20:15:44.675Z,99.90
2018-12-08T20:18:17.833Z,99.90
2018-12-08T20:20:47.517Z,99.90
2018-12-08T20:23:16.293Z,99.90
2018-12-08T20:25:48.605Z,99.90
2018-12-08T20:28:18.293Z,99.90
2018-12-08T20:30:55.653Z,99.90
2018-12-08T20:33:24.481Z,99.90
2018-12-08T20:35:56.349Z,99.90
2018-12-08T20:38:27.489Z,99.90
2018-12-08T20:41:00.736Z,99.90
2018-12-08T20:43:33.681Z,99.90
2018-12-08T20:46:10.469Z,99.90
2018-12-08T20:48:44.129Z,99.90
2018-12-08T20:51:20.581Z,99.90
2018-12-08T20:54:01.137Z,99.90
2018-12-08T20:56:40.888Z,99.90
2018-12-08T20:59:09.662Z,99.90
2018-12-08T21:01:38.470Z,99.90
2018-12-08T21:04:08.296Z,99.90
2018-12-08T21:06:40.773Z,99.90
2018-12-08T21:09:15.674Z,99.90
2018-12-08T21:11:51.377Z,99.90
2018-12-08T21:14:21.033Z,99.90
2018-12-08T21:16:56.746Z,99.90
2018-12-08T21:19:29.692Z,99.90
2018-12-08T21:21:58.509Z,99.90
2018-12-08T21:24:27.321Z,99.90
2018-12-08T21:26:56.311Z,99.90
2018-12-08T21:29:26.108Z,99.90
2018-12-08T21:31:55.008Z,99.90
2018-12-08T21:34:23.821Z,99.90
2018-12-08T21:36:59.362Z,99.90
2018-12-08T21:39:30.260Z,99.90
2018-12-08T21:42:00.972Z,99.90
2018-12-08T21:44:33.756Z,99.90
2018-12-08T21:47:04.570Z,99.90
2018-12-08T21:49:34.284Z,99.90
2018-12-08T21:52:06.144Z,99.90
2018-12-08T21:54:37.010Z,99.90
2018-12-08T21:57:06.792Z,99.90
2018-12-08T21:59:43.022Z,99.90
2018-12-08T22:02:12.740Z,99.90
2018-12-08T22:04:41.588Z,99.90
2018-12-08T22:07:17.234Z,99.90
2018-12-08T22:09:47.180Z,99.90
2018-12-08T22:12:16.012Z,99.90
2018-12-08T22:14:51.344Z,99.90
2018-12-08T22:17:20.276Z,99.90
2018-12-08T22:19:56.768Z,99.90
2018-12-08T22:22:25.587Z,99.90
2018-12-08T22:25:05.592Z,99.90
2018-12-08T22:27:35.417Z,99.90
2018-12-08T22:30:05.578Z,99.90
2018-12-08T22:32:38.604Z,99.90
2018-12-08T22:35:27.381Z,99.90
2018-12-08T22:37:57.288Z,99.90
2018-12-08T22:40:27.052Z,99.90
2018-12-08T22:42:55.889Z,99.90
2018-12-08T22:45:28.348Z,99.90
2018-12-08T22:48:11.364Z,99.90
2018-12-08T22:50:43.696Z,99.90
2018-12-08T22:53:24.122Z,99.90
2018-12-08T22:55:53.903Z,99.90
2018-12-08T22:58:23.568Z,99.90
2018-12-08T23:00:56.496Z,99.90
2018-12-08T23:03:25.364Z,99.90
2018-12-08T23:06:06.600Z,99.90
2018-12-08T23:08:36.408Z,99.90
2018-12-08T23:11:10.573Z,99.90
2018-12-08T23:13:44.908Z,99.90
2018-12-08T23:16:15.787Z,99.90
2018-12-08T23:18:51.927Z,99.90
2018-12-08T23:21:21.696Z,99.90
2018-12-08T23:24:09.780Z,99.90
2018-12-08T23:26:39.519Z,99.90
2018-12-08T23:29:12.112Z,99.90
2018-12-08T23:31:47.611Z,99.90
2018-12-08T23:34:29.980Z,99.90
2018-12-08T23:37:03.272Z,99.90
2018-12-08T23:39:38.858Z,99.90
2018-12-08T23:42:09.856Z,99.90
2018-12-08T23:44:55.771Z,99.90
2018-12-08T23:47:24.610Z,99.90
2018-12-08T23:50:11.099Z,99.90
2018-12-08T23:52:41.120Z,99.90
2018-12-08T23:55:12.031Z,99.90
2018-12-08T23:57:41.812Z,99.90
